createdAt,value
2022-11-02T00:01:21.089Z,97.80
2022-11-02T00:04:23.660Z,97.70
2022-11-02T00:07:28.184Z,97.70
2022-11-02T00:10:31.314Z,97.60
2022-11-02T00:13:33.390Z,97.70
2022-11-02T00:16:38.993Z,97.90
2022-11-02T00:19:41.206Z,97.60
2022-11-02T00:22:44.843Z,97.80
2022-11-02T00:25:50.075Z,98.30
2022-11-02T00:28:53.437Z,97.70
2022-11-02T00:31:56.062Z,98.10
2022-11-02T00:34:58.332Z,98.00
2022-11-02T00:38:00.558Z,98.10
2022-11-02T00:41:02.735Z,98.20
2022-11-02T00:44:04.930Z,98.00
2022-11-02T00:47:08.574Z,97.90
2022-11-02T00:50:10.764Z,97.80
2022-11-02T00:53:20.397Z,97.90
2022-11-02T00:56:22.420Z,98.10
2022-11-02T00:59:29.467Z,98.00
2022-11-02T01:02:33.776Z,98.00
2022-11-02T01:05:42.015Z,98.20
2022-11-02T01:08:45.035Z,98.00
2022-11-02T01:11:47.334Z,97.90
2022-11-02T01:14:50.844Z,98.20
2022-11-02T01:17:52.930Z,98.30
2022-11-02T01:20:59.213Z,98.40
2022-11-02T01:24:01.345Z,98.40
2022-11-02T01:27:04.216Z,98.40
2022-11-02T01:30:06.889Z,98.60
2022-11-02T01:33:09.046Z,98.70
2022-11-02T01:36:12.106Z,98.80
2022-11-02T01:39:15.592Z,98.80
2022-11-02T01:42:23.105Z,98.90
2022-11-02T01:45:25.504Z,99.00
2022-11-02T01:49:09.372Z,98.90
2022-11-02T01:52:32.645Z,99.00
2022-11-02T01:55:35.600Z,98.70
2022-11-02T01:58:42.084Z,98.80
2022-11-02T02:01:44.323Z,98.60
2022-11-02T02:04:51.792Z,98.80
2022-11-02T02:07:56.447Z,98.80
2022-11-02T02:10:59.685Z,99.00
2022-11-02T02:14:06.069Z,98.70
2022-11-02T02:17:20.195Z,98.70
2022-11-02T02:20:55.777Z,98.60
2022-11-02T02:24:19.665Z,98.70
2022-11-02T02:28:03.705Z,98.70
2022-11-02T02:31:23.299Z,98.80
2022-11-02T02:34:34.689Z,98.90
2022-11-02T02:37:44.603Z,98.50
2022-11-02T02:40:54.817Z,98.70
2022-11-02T02:43:58.852Z,98.70
2022-11-02T02:47:14.526Z,98.90
2022-11-02T02:50:26.885Z,98.80
2022-11-02T02:53:42.574Z,98.90
2022-11-02T02:56:50.669Z,98.90
2022-11-02T02:59:52.707Z,99.00
2022-11-02T03:03:01.470Z,99.10
2022-11-02T03:06:18.808Z,99.10
2022-11-02T03:09:41.326Z,99.10
2022-11-02T03:12:51.285Z,99.00
2022-11-02T03:16:01.392Z,99.10
2022-11-02T03:19:29.875Z,99.40
2022-11-02T03:22:50.586Z,99.40
2022-11-02T03:26:09.084Z,99.40
2022-11-02T03:29:19.684Z,99.60
2022-11-02T03:32:41.694Z,99.50
2022-11-02T03:35:58.181Z,99.50
2022-11-02T03:39:09.184Z,99.30
2022-11-02T03:42:17.608Z,99.30
2022-11-02T03:45:27.211Z,99.40
2022-11-02T03:48:41.957Z,99.30
2022-11-02T03:51:46.392Z,99.30
2022-11-02T03:55:03.136Z,99.30
2022-11-02T03:58:05.540Z,99.40
2022-11-02T04:01:09.521Z,99.40
2022-11-02T04:04:11.942Z,99.20
2022-11-02T04:07:14.781Z,99.00
2022-11-02T04:10:17.032Z,99.20
2022-11-02T04:13:37.389Z,99.20
2022-11-02T04:16:40.056Z,99.10
2022-11-02T04:19:45.529Z,99.10
2022-11-02T04:23:09.716Z,99.20
2022-11-02T04:26:11.946Z,99.10
2022-11-02T04:29:14.785Z,99.20
2022-11-02T04:32:37.303Z,99.00
2022-11-02T04:35:39.710Z,99.20
2022-11-02T04:38:42.055Z,99.30
2022-11-02T04:41:44.446Z,99.30
2022-11-02T04:44:46.828Z,99.20
2022-11-02T04:47:49.233Z,99.10
2022-11-02T04:50:54.467Z,99.10
2022-11-02T04:53:57.888Z,99.30
2022-11-02T04:57:00.397Z,99.40
2022-11-02T05:00:02.893Z,99.30
2022-11-02T05:03:09.587Z,99.30
2022-11-02T05:06:15.323Z,99.50
2022-11-02T05:09:17.470Z,99.30
2022-11-02T05:12:19.589Z,99.40
2022-11-02T05:15:30.583Z,99.50
2022-11-02T05:18:36.215Z,99.60
2022-11-02T05:21:38.308Z,99.20
2022-11-02T05:24:40.491Z,99.40
2022-11-02T05:27:42.594Z,99.20
2022-11-02T05:30:44.942Z,99.40
2022-11-02T05:33:46.996Z,99.10
2022-11-02T05:36:49.753Z,99.30
2022-11-02T05:39:52.017Z,99.10
2022-11-02T05:43:02.327Z,99.10
2022-11-02T05:46:05.530Z,98.90
2022-11-02T05:49:07.632Z,99.10
2022-11-02T05:52:09.665Z,99.00
2022-11-02T05:55:11.937Z,99.10
2022-11-02T05:58:14.296Z,99.00
2022-11-02T06:01:17.356Z,98.80
2022-11-02T06:04:19.624Z,98.90
2022-11-02T06:07:21.787Z,99.00
2022-11-02T06:10:23.900Z,99.10
2022-11-02T06:13:26.029Z,99.10
2022-11-02T06:16:28.204Z,99.20
2022-11-02T06:19:30.272Z,98.90
2022-11-02T06:22:38.776Z,98.90
2022-11-02T06:25:41.020Z,99.00
2022-11-02T06:28:43.426Z,98.90
2022-11-02T06:31:45.616Z,98.90
2022-11-02T06:34:47.655Z,99.10
2022-11-02T06:37:50.353Z,98.90
2022-11-02T06:40:56.365Z,99.20
2022-11-02T06:43:58.647Z,99.10
2022-11-02T06:47:00.825Z,99.10
2022-11-02T06:50:06.599Z,99.10
2022-11-02T06:53:08.772Z,99.20
2022-11-02T06:56:12.507Z,99.10
2022-11-02T06:59:14.636Z,99.10
2022-11-02T07:02:16.947Z,99.20
2022-11-02T07:05:20.302Z,99.40
2022-11-02T07:08:23.911Z,99.20
2022-11-02T07:11:26.217Z,99.40
2022-11-02T07:14:28.565Z,99.30
2022-11-02T07:17:33.754Z,99.20
2022-11-02T07:20:36.377Z,99.40
2022-11-02T07:23:38.649Z,99.50
2022-11-02T07:26:40.900Z,99.90
2022-11-02T07:29:43.101Z,99.40
2022-11-02T07:32:46.525Z,96.70
2022-11-02T07:35:48.514Z,96.30
2022-11-02T07:38:51.159Z,94.70
2022-11-02T07:41:53.357Z,95.30
2022-11-02T07:44:55.541Z,94.50
2022-11-02T07:47:59.548Z,93.70
2022-11-02T07:51:04.493Z,91.60
2022-11-02T07:54:07.605Z,90.40
2022-11-02T07:57:09.858Z,86.90
2022-11-02T08:00:12.802Z,83.90
2022-11-02T08:03:15.204Z,81.40
2022-11-02T08:06:17.365Z,76.80
2022-11-02T08:09:19.668Z,72.70
2022-11-02T08:12:21.881Z,72.20
2022-11-02T08:15:24.412Z,69.90
2022-11-02T08:18:28.474Z,67.90
2022-11-02T08:21:30.771Z,64.10
2022-11-02T08:24:33.006Z,65.90
2022-11-02T08:27:35.158Z,66.50
2022-11-02T08:30:38.489Z,66.10
2022-11-02T08:33:40.684Z,67.10
2022-11-02T08:36:42.917Z,66.60
2022-11-02T08:39:45.148Z,65.20
2022-11-02T08:42:47.526Z,62.60
2022-11-02T08:49:12.103Z,59.90
2022-11-02T08:52:14.310Z,60.70
2022-11-02T08:55:16.654Z,56.40
2022-11-02T08:58:18.996Z,53.10
2022-11-02T09:01:21.240Z,54.40
2022-11-02T09:04:23.748Z,52.40
2022-11-02T09:07:25.867Z,52.10
2022-11-02T09:10:30.283Z,52.60
2022-11-02T09:13:32.574Z,50.10
2022-11-02T09:16:40.180Z,48.30
2022-11-02T09:19:44.383Z,50.60
2022-11-02T09:22:47.068Z,55.00
2022-11-02T09:25:50.073Z,52.30
2022-11-02T09:28:52.351Z,55.70
2022-11-02T09:31:54.543Z,56.20
2022-11-02T09:34:58.738Z,55.60
2022-11-02T09:38:01.118Z,56.70
2022-11-02T09:41:34.521Z,61.00
2022-11-02T09:45:00.246Z,59.80
2022-11-02T09:48:28.580Z,56.50
2022-11-02T09:51:42.352Z,49.50
2022-11-02T09:54:49.580Z,50.40
2022-11-02T09:58:00.171Z,52.90
2022-11-02T10:01:14.393Z,50.10
2022-11-02T10:04:33.169Z,49.30
2022-11-02T10:08:06.085Z,47.20
2022-11-02T10:11:21.019Z,45.20
2022-11-02T10:14:37.982Z,42.10
2022-11-02T10:17:42.320Z,44.10
2022-11-02T10:20:57.146Z,44.30
2022-11-02T10:24:10.686Z,48.30
2022-11-02T10:27:28.690Z,49.70
2022-11-02T10:30:32.792Z,55.60
2022-11-02T10:33:36.426Z,57.80
2022-11-02T10:36:44.273Z,60.50
2022-11-02T10:40:05.793Z,62.00
2022-11-02T10:43:32.299Z,61.20
2022-11-02T10:46:43.197Z,62.20
2022-11-02T10:50:13.029Z,58.50
2022-11-02T10:53:40.188Z,60.80
2022-11-02T10:56:42.090Z,63.10
2022-11-02T10:59:45.556Z,63.50
2022-11-02T11:03:02.565Z,65.60
2022-11-02T11:06:05.270Z,66.00
2022-11-02T11:09:32.122Z,68.60
2022-11-02T11:12:40.087Z,70.20
2022-11-02T11:22:32.467Z,83.00
2022-11-02T11:25:34.547Z,84.30
2022-11-02T11:28:53.958Z,84.90
2022-11-02T11:31:56.226Z,86.30
2022-11-02T11:35:06.188Z,88.00
2022-11-02T11:38:18.160Z,89.40
2022-11-02T11:41:20.642Z,89.80
2022-11-02T11:44:24.663Z,89.90
2022-11-02T11:47:35.788Z,88.80
2022-11-02T11:50:47.223Z,88.40
2022-11-02T11:54:24.482Z,88.70
2022-11-02T11:57:34.859Z,87.70
2022-11-02T12:00:38.676Z,86.70
2022-11-02T12:03:56.156Z,87.70
2022-11-02T12:07:35.719Z,87.60
2022-11-02T12:10:47.908Z,84.90
2022-11-02T12:14:28.482Z,82.40
2022-11-02T12:17:55.704Z,80.80
2022-11-02T12:21:09.990Z,80.80
2022-11-02T12:24:21.014Z,80.60
2022-11-02T12:28:09.772Z,82.00
2022-11-02T12:31:30.694Z,80.70
2022-11-02T12:35:29.867Z,82.10
2022-11-02T12:38:45.706Z,81.70
2022-11-02T12:42:11.512Z,83.20
2022-11-02T12:45:26.981Z,82.70
2022-11-02T12:48:46.613Z,81.20
2022-11-02T12:52:03.679Z,80.10
2022-11-02T12:55:17.332Z,81.20
2022-11-02T12:58:34.858Z,82.60
2022-11-02T13:01:44.021Z,81.50
2022-11-02T13:05:20.477Z,81.20
2022-11-02T13:08:33.204Z,83.40
2022-11-02T13:11:37.919Z,83.10
2022-11-02T13:14:47.764Z,84.40
2022-11-02T13:18:08.115Z,85.70
2022-11-02T13:21:14.290Z,85.30
2022-11-02T13:24:25.182Z,86.00
2022-11-02T13:27:38.470Z,86.70
2022-11-02T13:30:43.528Z,88.10
2022-11-02T13:33:51.543Z,88.90
2022-11-02T13:36:53.629Z,89.20
2022-11-02T13:40:00.560Z,90.30
2022-11-02T13:43:23.910Z,90.00
2022-11-02T13:46:44.105Z,90.10
2022-11-02T13:49:53.976Z,90.80
2022-11-02T13:53:05.429Z,90.80
2022-11-02T13:56:21.195Z,90.80
2022-11-02T13:59:43.241Z,90.90
2022-11-02T14:02:54.812Z,91.10
2022-11-02T14:06:09.288Z,91.40
2022-11-02T14:09:30.081Z,91.50
2022-11-02T14:12:44.718Z,91.30
2022-11-02T14:15:52.780Z,91.50
2022-11-02T14:19:19.390Z,91.30
2022-11-02T14:22:22.526Z,90.80
2022-11-02T14:25:24.794Z,91.30
2022-11-02T14:28:42.779Z,91.60
2022-11-02T14:31:55.171Z,91.50
2022-11-02T14:35:22.367Z,91.60
2022-11-02T14:38:39.624Z,91.80
2022-11-02T14:42:10.695Z,92.10
2022-11-02T14:45:25.868Z,92.10
2022-11-02T14:48:31.358Z,92.40
2022-11-02T14:51:37.907Z,92.30
2022-11-02T14:54:49.166Z,92.40
2022-11-02T14:58:00.295Z,92.00
2022-11-02T15:01:04.358Z,91.40
2022-11-02T15:04:08.384Z,91.20
2022-11-02T15:07:21.198Z,91.20
2022-11-02T15:10:32.591Z,91.00
2022-11-02T15:13:47.700Z,90.90
2022-11-02T15:16:49.933Z,91.00
2022-11-02T15:19:58.307Z,91.00
2022-11-02T15:23:26.471Z,91.40
2022-11-02T15:26:50.849Z,91.40
2022-11-02T15:29:53.726Z,91.40
2022-11-02T15:33:05.858Z,91.50
2022-11-02T15:36:33.245Z,91.50
2022-11-02T15:39:38.481Z,91.60
2022-11-02T15:43:00.988Z,91.60
2022-11-02T15:46:55.280Z,91.50
2022-11-02T15:49:57.588Z,91.50
2022-11-02T15:53:26.897Z,91.40
2022-11-02T15:56:44.298Z,90.70
2022-11-02T15:59:55.888Z,90.10
2022-11-02T16:03:07.404Z,88.50
2022-11-02T16:06:09.824Z,88.40
2022-11-02T16:09:33.053Z,88.20
2022-11-02T16:12:35.089Z,88.10
2022-11-02T16:15:37.455Z,88.80
2022-11-02T16:18:40.742Z,88.90
2022-11-02T16:21:42.964Z,89.00
2022-11-02T16:24:47.160Z,89.30
2022-11-02T16:27:49.391Z,90.30
2022-11-02T16:31:17.175Z,89.90
2022-11-02T16:34:26.223Z,89.80
2022-11-02T16:37:29.319Z,89.70
2022-11-02T16:40:31.545Z,89.90
2022-11-02T16:43:33.897Z,89.80
2022-11-02T16:46:49.591Z,89.60
2022-11-02T16:49:51.948Z,89.70
2022-11-02T16:52:59.806Z,90.00
2022-11-02T16:56:30.952Z,89.60
2022-11-02T16:59:35.088Z,89.80
2022-11-02T17:02:42.597Z,89.70
2022-11-02T17:05:49.543Z,89.80
2022-11-02T17:08:55.254Z,89.70
2022-11-02T17:12:06.074Z,89.70
2022-11-02T17:15:21.186Z,89.60
2022-11-02T17:18:23.127Z,89.30
2022-11-02T17:21:29.799Z,90.00
2022-11-02T17:24:33.241Z,90.00
2022-11-02T17:27:39.317Z,90.00
2022-11-02T17:30:45.458Z,90.10
2022-11-02T17:33:48.072Z,90.10
2022-11-02T17:36:50.963Z,90.70
2022-11-02T17:39:54.748Z,91.20
2022-11-02T17:42:59.810Z,91.50
2022-11-02T17:46:03.210Z,92.10
2022-11-02T17:49:05.303Z,92.00
2022-11-02T17:52:07.857Z,92.10
2022-11-02T17:55:15.463Z,92.60
2022-11-02T17:58:17.991Z,92.50
2022-11-02T18:01:23.414Z,92.60
2022-11-02T18:04:25.676Z,92.80
2022-11-02T18:07:27.771Z,92.80
2022-11-02T18:10:33.148Z,93.30
2022-11-02T18:13:35.190Z,93.00
2022-11-02T18:16:37.265Z,92.90
2022-11-02T18:19:39.373Z,93.00
2022-11-02T18:22:41.600Z,93.00
2022-11-02T18:25:43.784Z,93.10
2022-11-02T18:28:45.850Z,93.40
2022-11-02T18:31:48.008Z,93.90
2022-11-02T18:34:50.443Z,94.20
2022-11-02T18:37:52.798Z,93.70
2022-11-02T18:40:55.120Z,94.50
2022-11-02T18:44:04.169Z,94.10
2022-11-02T18:47:09.063Z,94.20
2022-11-02T18:50:13.408Z,94.10
2022-11-02T18:53:15.461Z,94.30
2022-11-02T18:56:17.733Z,94.10
2022-11-02T18:59:19.852Z,94.30
2022-11-02T19:02:22.041Z,94.20
2022-11-02T19:05:42.765Z,94.10
2022-11-02T19:09:03.668Z,94.00
2022-11-02T19:12:20.498Z,94.30
2022-11-02T19:15:22.506Z,94.50
2022-11-02T19:18:24.764Z,94.40
2022-11-02T19:21:29.009Z,94.80
2022-11-02T19:24:31.256Z,94.70
2022-11-02T19:27:33.234Z,94.80
2022-11-02T19:30:38.947Z,95.20
2022-11-02T19:33:41.423Z,95.20
2022-11-02T19:36:44.587Z,95.10
2022-11-02T19:39:46.706Z,95.20
2022-11-02T19:42:58.164Z,95.20
2022-11-02T19:46:02.141Z,95.60
2022-11-02T19:49:04.322Z,95.40
2022-11-02T19:52:07.558Z,95.30
2022-11-02T19:55:10.134Z,95.30
2022-11-02T19:58:12.330Z,95.30
2022-11-02T20:01:21.100Z,95.50
2022-11-02T20:04:25.375Z,95.50
2022-11-02T20:07:30.145Z,95.70
2022-11-02T20:10:32.292Z,95.80
2022-11-02T20:13:35.539Z,95.80
2022-11-02T20:16:38.552Z,96.30
2022-11-02T20:19:40.738Z,96.30
2022-11-02T20:22:43.323Z,96.00
2022-11-02T20:25:45.813Z,95.90
2022-11-02T20:28:49.327Z,96.00
2022-11-02T20:31:51.575Z,96.00
2022-11-02T20:34:53.775Z,95.90
2022-11-02T20:37:55.833Z,95.80
2022-11-02T20:41:05.393Z,95.80
2022-11-02T20:44:07.491Z,96.00
2022-11-02T20:47:09.825Z,96.10
2022-11-02T20:50:16.443Z,96.30
2022-11-02T20:53:19.794Z,96.20
2022-11-02T20:56:21.933Z,96.40
2022-11-02T20:59:24.232Z,96.40
2022-11-02T21:02:26.798Z,96.30
2022-11-02T21:05:29.019Z,96.50
2022-11-02T21:08:31.053Z,96.50
2022-11-02T21:11:51.545Z,96.70
2022-11-02T21:14:53.728Z,96.80
2022-11-02T21:17:56.119Z,96.60
2022-11-02T21:21:07.733Z,96.60
2022-11-02T21:24:10.100Z,96.80
2022-11-02T21:27:12.240Z,96.70
2022-11-02T21:30:14.408Z,96.90
2022-11-02T21:33:16.521Z,96.90
2022-11-02T21:36:18.689Z,96.90
2022-11-02T21:39:20.949Z,97.20
2022-11-02T21:42:22.971Z,97.50
2022-11-02T21:45:26.361Z,97.10
2022-11-02T21:48:33.844Z,97.40
2022-11-02T21:51:38.566Z,97.60
2022-11-02T21:54:40.691Z,97.80
2022-11-02T21:57:42.808Z,97.60
2022-11-02T22:01:05.071Z,97.80
2022-11-02T22:04:08.614Z,97.90
2022-11-02T22:07:10.843Z,98.50
2022-11-02T22:10:13.070Z,98.20
2022-11-02T22:13:33.151Z,98.70
2022-11-02T22:16:38.153Z,98.70
2022-11-02T22:19:40.520Z,98.70
2022-11-02T22:22:42.635Z,98.80
2022-11-02T22:25:47.579Z,98.80
2022-11-02T22:28:50.216Z,98.80
2022-11-02T22:31:52.650Z,99.10
2022-11-02T22:34:54.682Z,99.20
2022-11-02T22:38:15.519Z,99.00
2022-11-02T22:41:35.469Z,99.10
2022-11-02T22:44:37.840Z,99.40
2022-11-02T22:47:39.943Z,99.50
2022-11-02T22:50:44.314Z,99.60
2022-11-02T22:53:46.933Z,99.60
2022-11-02T22:56:49.528Z,99.50
2022-11-02T22:59:51.755Z,99.30
2022-11-02T23:02:54.001Z,99.20
2022-11-02T23:05:56.332Z,99.30
2022-11-02T23:08:59.200Z,99.40
2022-11-02T23:12:01.271Z,99.50
2022-11-02T23:15:03.727Z,99.60
2022-11-02T23:18:06.068Z,99.70
2022-11-02T23:21:08.147Z,99.90
2022-11-02T23:24:29.404Z,99.90
2022-11-02T23:27:56.355Z,99.90
2022-11-02T23:31:16.991Z,99.90
2022-11-02T23:34:19.126Z,99.90
2022-11-02T23:37:21.528Z,99.90
2022-11-02T23:40:23.591Z,99.90
2022-11-02T23:43:25.725Z,99.90
2022-11-02T23:46:27.899Z,99.90
2022-11-02T23:49:29.959Z,99.90
2022-11-02T23:52:50.388Z,99.90
2022-11-02T23:56:11.111Z,99.90
2022-11-02T23:59:17.904Z,99.90
